createdAt,value
2019-04-11T00:02:14.394Z,11.80
2019-04-11T00:04:46.117Z,11.38
2019-04-11T00:07:18.257Z,11.50
2019-04-11T00:09:49.300Z,11.25
2019-04-11T00:12:20.043Z,10.75
2019-04-11T00:14:51.503Z,16.23
2019-04-11T00:17:22.127Z,12.73
2019-04-11T00:19:53.687Z,11.57
2019-04-11T00:22:24.080Z,12.25
2019-04-11T00:24:55.436Z,12.93
2019-04-11T00:27:26.732Z,16.40
2019-04-11T00:29:57.125Z,11.10
2019-04-11T00:32:27.592Z,9.88
2019-04-11T00:34:59.376Z,11.68
2019-04-11T00:37:30.077Z,9.63
2019-04-11T00:40:01.707Z,10.65
2019-04-11T00:42:32.225Z,11.45
2019-04-11T00:45:03.348Z,12.10
2019-04-11T00:47:33.770Z,10.50
2019-04-11T00:50:05.534Z,12.03
2019-04-11T00:52:37.008Z,10.10
2019-04-11T00:55:07.504Z,11.40
2019-04-11T00:57:38.909Z,12.10
2019-04-11T01:00:09.668Z,11.93
2019-04-11T01:02:41.746Z,11.30
2019-04-11T01:05:13.068Z,13.30
2019-04-11T01:07:45.014Z,12.37
2019-04-11T01:10:16.189Z,11.55
2019-04-11T01:12:46.959Z,12.78
2019-04-11T01:15:20.084Z,13.83
2019-04-11T01:17:51.673Z,11.95
2019-04-11T01:20:22.298Z,9.73
2019-04-11T01:22:52.683Z,11.68
2019-04-11T01:25:24.373Z,10.32
2019-04-11T01:27:56.436Z,10.70
2019-04-11T01:30:35.013Z,10.20
2019-04-11T01:33:06.563Z,9.75
2019-04-11T01:35:38.159Z,10.05
2019-04-11T01:38:11.002Z,11.30
2019-04-11T01:40:42.255Z,9.83
2019-04-11T01:43:13.540Z,9.70
2019-04-11T01:45:44.015Z,12.07
2019-04-11T01:48:22.012Z,11.00
2019-04-11T01:50:53.565Z,8.48
2019-04-11T01:53:24.758Z,15.43
2019-04-11T01:55:55.187Z,11.57
2019-04-11T01:58:26.694Z,12.05
2019-04-11T02:01:06.280Z,10.90
2019-04-11T02:03:55.346Z,14.35
2019-04-11T02:06:26.037Z,15.70
2019-04-11T02:08:56.363Z,11.68
2019-04-11T02:11:27.669Z,14.03
2019-04-11T02:14:09.805Z,15.30
2019-04-11T02:16:30.176Z,15.50
2019-04-11T02:19:01.589Z,13.70
2019-04-11T02:21:33.667Z,11.48
2019-04-11T02:24:25.948Z,11.20
2019-04-11T02:27:14.740Z,13.58
2019-04-11T02:29:46.762Z,8.68
2019-04-11T02:32:18.526Z,12.00
2019-04-11T02:34:50.743Z,11.38
2019-04-11T02:37:21.940Z,10.72
2019-04-11T02:39:55.751Z,10.32
2019-04-11T02:42:27.508Z,15.75
2019-04-11T02:45:13.200Z,14.00
2019-04-11T02:47:32.911Z,10.08
2019-04-11T02:50:03.622Z,15.18
2019-04-11T02:52:35.422Z,11.73
2019-04-11T02:55:08.474Z,10.30
2019-04-11T02:57:40.817Z,11.73
2019-04-11T03:00:13.445Z,11.93
2019-04-11T03:02:44.459Z,15.38
2019-04-11T03:05:16.318Z,10.55
2019-04-11T03:07:47.734Z,10.32
2019-04-11T03:10:18.725Z,10.15
2019-04-11T03:12:49.975Z,12.10
2019-04-11T03:15:37.460Z,9.73
2019-04-11T03:17:59.023Z,8.75
2019-04-11T03:20:32.481Z,11.35
2019-04-11T03:23:00.061Z,9.98
2019-04-11T03:25:30.455Z,9.55
2019-04-11T03:28:01.603Z,11.03
2019-04-11T03:30:46.682Z,12.03
2019-04-11T03:38:29.656Z,13.03
2019-04-11T03:41:00.856Z,11.85
2019-04-11T03:43:28.281Z,11.88
2019-04-11T03:46:05.205Z,11.78
2019-04-11T03:48:33.448Z,11.45
2019-04-11T03:50:55.327Z,11.75
2019-04-11T03:53:29.158Z,13.35
2019-04-11T03:55:58.818Z,14.15
2019-04-11T03:58:31.116Z,12.63
2019-04-11T04:01:05.547Z,12.63
2019-04-11T04:03:36.449Z,13.35
2019-04-11T04:06:07.265Z,10.25
2019-04-11T04:08:39.196Z,11.35
2019-04-11T04:11:31.602Z,13.10
2019-04-11T04:14:19.908Z,14.95
2019-04-11T04:17:10.637Z,12.18
2019-04-11T04:20:04.928Z,10.78
2019-04-11T04:22:57.142Z,10.95
2019-04-11T04:25:28.563Z,13.22
2019-04-11T04:28:11.839Z,13.55
2019-04-11T04:31:09.701Z,10.82
2019-04-11T04:33:45.486Z,14.38
2019-04-11T04:36:40.300Z,13.68
2019-04-11T04:39:10.679Z,14.83
2019-04-11T04:42:24.898Z,13.10
2019-04-11T04:44:46.705Z,10.63
2019-04-11T04:47:24.790Z,11.35
2019-04-11T04:49:54.207Z,10.78
2019-04-11T04:52:25.212Z,13.15
2019-04-11T04:54:57.719Z,11.12
2019-04-11T04:57:29.766Z,9.60
2019-04-11T05:00:02.425Z,11.93
2019-04-11T05:02:35.438Z,9.40
2019-04-11T05:05:06.241Z,12.78
2019-04-11T05:07:40.482Z,12.07
2019-04-11T05:10:11.127Z,10.65
2019-04-11T05:12:43.823Z,8.65
2019-04-11T05:15:14.617Z,10.05
2019-04-11T05:17:49.191Z,11.03
2019-04-11T05:20:19.797Z,7.55
2019-04-11T05:22:51.228Z,12.15
2019-04-11T05:25:22.729Z,12.00
2019-04-11T05:27:54.015Z,7.95
2019-04-11T05:30:25.259Z,9.33
2019-04-11T05:32:55.758Z,8.80
2019-04-11T05:35:26.943Z,9.65
2019-04-11T05:37:58.016Z,13.18
2019-04-11T05:40:28.325Z,13.62
2019-04-11T05:42:59.639Z,10.18
2019-04-11T05:45:31.793Z,9.33
2019-04-11T05:48:03.313Z,14.85
2019-04-11T05:50:36.017Z,12.60
2019-04-11T05:53:07.408Z,13.43
2019-04-11T05:55:43.082Z,13.08
2019-04-11T05:58:14.231Z,10.48
2019-04-11T06:01:03.399Z,9.90
2019-04-11T06:03:34.282Z,10.40
2019-04-11T06:06:41.750Z,15.48
2019-04-11T06:09:16.715Z,11.05
2019-04-11T06:11:59.683Z,11.95
2019-04-11T06:14:47.206Z,12.23
2019-04-11T06:17:19.259Z,9.93
2019-04-11T06:20:12.532Z,11.35
2019-04-11T06:22:49.742Z,11.18
2019-04-11T06:25:35.192Z,10.00
2019-04-11T06:28:09.607Z,13.88
2019-04-11T06:30:57.503Z,11.33
2019-04-11T06:33:34.515Z,11.73
2019-04-11T06:36:23.903Z,8.73
2019-04-11T06:39:24.889Z,8.68
2019-04-11T06:42:12.832Z,7.95
2019-04-11T06:44:50.209Z,9.48
2019-04-11T06:47:41.038Z,11.53
2019-04-11T06:50:34.089Z,9.43
2019-04-11T06:53:08.871Z,11.20
2019-04-11T06:55:57.298Z,8.88
2019-04-11T06:58:35.655Z,10.68
2019-04-11T07:01:10.523Z,9.93
2019-04-11T07:03:46.863Z,9.63
2019-04-11T07:06:23.800Z,8.78
2019-04-11T07:09:20.322Z,8.70
2019-04-11T07:11:54.285Z,7.25
2019-04-11T07:14:39.496Z,10.10
2019-04-11T07:17:29.784Z,7.85
2019-04-11T07:20:18.638Z,9.05
2019-04-11T07:23:07.879Z,7.78
2019-04-11T07:25:53.922Z,5.35
2019-04-11T07:28:36.740Z,9.85
2019-04-11T07:31:25.643Z,7.50
2019-04-11T07:34:31.288Z,8.85
2019-04-11T07:37:16.830Z,8.18
2019-04-11T07:40:15.761Z,9.13
2019-04-11T07:43:15.741Z,10.25
2019-04-11T07:46:12.607Z,8.33
2019-04-11T07:48:44.711Z,13.13
2019-04-11T07:51:41.178Z,9.13
2019-04-11T07:54:15.715Z,9.58
2019-04-11T07:57:05.141Z,6.17
2019-04-11T07:59:53.709Z,8.38
2019-04-11T08:02:45.784Z,6.30
2019-04-11T08:05:50.460Z,7.70
2019-04-11T08:08:39.409Z,9.15
2019-04-11T08:11:29.789Z,7.03
2019-04-11T08:14:18.315Z,6.33
2019-04-11T08:17:30.902Z,6.40
2019-04-11T08:20:13.215Z,7.95
2019-04-11T08:23:03.557Z,7.23
2019-04-11T08:25:58.053Z,5.22
2019-04-11T08:28:28.958Z,9.58
2019-04-11T08:31:28.808Z,6.37
2019-04-11T08:34:02.771Z,7.63
2019-04-11T08:37:05.301Z,9.37
2019-04-11T08:39:41.559Z,8.27
2019-04-11T08:42:38.951Z,4.90
2019-04-11T08:45:12.428Z,4.80
2019-04-11T08:47:54.312Z,5.07
2019-04-11T08:50:28.377Z,6.50
2019-04-11T08:53:24.622Z,6.70
2019-04-11T08:56:00.546Z,4.63
2019-04-11T08:58:47.020Z,5.43
2019-04-11T09:01:20.159Z,4.47
2019-04-11T09:04:07.323Z,5.93
2019-04-11T09:06:37.230Z,5.90
2019-04-11T09:09:27.064Z,4.33
2019-04-11T09:12:04.425Z,6.30
2019-04-11T09:14:54.693Z,5.63
2019-04-11T09:17:30.295Z,4.83
2019-04-11T09:20:38.120Z,8.87
2019-04-11T09:23:11.809Z,6.80
2019-04-11T09:26:01.539Z,6.93
2019-04-11T09:28:37.855Z,5.17
2019-04-11T09:31:43.676Z,6.05
2019-04-11T09:34:33.445Z,7.00
2019-04-11T09:37:13.647Z,8.23
2019-04-11T09:40:04.193Z,6.53
2019-04-11T09:42:47.155Z,5.35
2019-04-11T09:45:39.196Z,7.12
2019-04-11T09:48:44.333Z,5.95
2019-04-11T09:51:40.322Z,6.58
2019-04-11T09:54:36.543Z,7.87
2019-04-11T09:57:18.569Z,5.92
2019-04-11T10:00:05.846Z,7.35
2019-04-11T10:03:08.633Z,5.87
2019-04-11T10:06:13.979Z,4.10
2019-04-11T10:08:48.796Z,7.07
2019-04-11T10:11:54.559Z,7.07
2019-04-11T10:14:27.290Z,6.17
2019-04-11T10:17:33.669Z,6.53
2019-04-11T10:20:07.089Z,6.20
2019-04-11T10:22:58.413Z,6.60
2019-04-11T10:25:39.198Z,6.87
2019-04-11T10:28:29.560Z,7.47
2019-04-11T10:31:20.162Z,7.53
2019-04-11T10:34:09.182Z,5.90
2019-04-11T10:37:03.499Z,6.73
2019-04-11T10:40:00.101Z,6.33
2019-04-11T10:42:32.880Z,8.30
2019-04-11T10:45:22.663Z,6.07
2019-04-11T10:47:56.000Z,5.30
2019-04-11T10:50:46.545Z,8.27
2019-04-11T10:53:19.388Z,7.17
2019-04-11T10:56:09.045Z,7.80
2019-04-11T10:58:49.084Z,6.47
2019-04-11T11:01:37.095Z,6.90
2019-04-11T11:04:17.890Z,6.53
2019-04-11T11:06:51.714Z,5.93
2019-04-11T11:09:50.483Z,7.70
2019-04-11T11:12:32.965Z,7.90
2019-04-11T11:15:11.709Z,7.33
2019-04-11T11:18:35.724Z,8.50
2019-04-11T11:20:48.293Z,8.03
2019-04-11T11:23:31.119Z,5.40
2019-04-11T11:26:29.489Z,5.63
2019-04-11T11:29:31.955Z,10.00
2019-04-11T11:32:11.311Z,6.53
2019-04-11T11:35:15.129Z,8.13
2019-04-11T11:37:49.234Z,8.90
2019-04-11T11:40:41.261Z,7.37
2019-04-11T11:43:30.784Z,7.20
2019-04-11T11:46:31.536Z,6.17
2019-04-11T11:49:05.941Z,8.23
2019-04-11T11:52:11.279Z,8.53
2019-04-11T11:54:54.253Z,6.70
2019-04-11T11:57:28.922Z,5.70
2019-04-11T12:00:13.656Z,6.13
2019-04-11T12:02:52.090Z,9.13
2019-04-11T12:05:37.123Z,6.63
2019-04-11T12:08:30.720Z,10.13
2019-04-11T12:11:03.992Z,6.47
2019-04-11T12:14:00.018Z,6.30
2019-04-11T12:16:51.864Z,7.03
2019-04-11T12:19:28.887Z,6.80
2019-04-11T12:21:59.921Z,4.57
2019-04-11T12:24:48.309Z,7.10
2019-04-11T12:34:34.790Z,5.33
2019-04-11T12:37:08.878Z,5.10
2019-04-11T12:39:57.089Z,6.57
2019-04-11T12:42:31.217Z,6.00
2019-04-11T12:45:19.361Z,7.47
2019-04-11T12:47:55.657Z,6.57
2019-04-11T12:50:43.765Z,8.20
2019-04-11T12:53:25.621Z,5.00
2019-04-11T12:56:26.852Z,6.10
2019-04-11T12:59:09.677Z,6.23
2019-04-11T13:01:57.805Z,6.03
2019-04-11T13:04:45.669Z,7.13
2019-04-11T13:07:35.021Z,6.77
2019-04-11T13:10:16.721Z,5.03
2019-04-11T13:13:06.081Z,6.03
2019-04-11T13:15:44.364Z,7.23
2019-04-11T13:18:38.263Z,5.47
2019-04-11T13:21:27.725Z,4.97
2019-04-11T13:24:23.076Z,5.37
2019-04-11T13:27:11.072Z,4.50
2019-04-11T13:30:03.743Z,10.30
2019-04-11T13:32:55.363Z,6.07
2019-04-11T13:35:51.468Z,6.10
2019-04-11T13:38:33.142Z,6.17
2019-04-11T13:41:22.789Z,5.27
2019-04-11T13:44:06.452Z,7.23
2019-04-11T13:46:56.665Z,8.90
2019-04-11T13:50:03.857Z,7.00
2019-04-11T13:53:01.452Z,7.17
2019-04-11T13:55:35.089Z,6.70
2019-04-11T13:58:40.252Z,6.05
2019-04-11T14:01:15.262Z,5.55
2019-04-11T14:04:07.676Z,5.80
2019-04-11T14:06:38.180Z,5.15
2019-04-11T14:09:30.482Z,7.10
2019-04-11T14:12:05.098Z,6.60
2019-04-11T14:14:58.385Z,6.90
2019-04-11T14:18:04.931Z,8.53
2019-04-11T14:20:55.234Z,5.35
2019-04-11T14:23:44.585Z,6.08
2019-04-11T14:26:42.907Z,6.08
2019-04-11T14:29:30.707Z,6.20
2019-04-11T14:32:17.314Z,5.45
2019-04-11T14:35:21.877Z,7.78
2019-04-11T14:38:04.665Z,6.25
2019-04-11T14:41:05.966Z,6.17
2019-04-11T14:43:39.585Z,7.50
2019-04-11T14:46:28.931Z,6.03
2019-04-11T14:49:02.690Z,4.92
2019-04-11T14:51:55.067Z,5.77
2019-04-11T14:54:40.241Z,5.28
2019-04-11T14:57:41.430Z,9.40
2019-04-11T15:00:25.070Z,8.80
2019-04-11T15:03:24.409Z,5.37
2019-04-11T15:06:08.489Z,6.23
2019-04-11T15:09:02.129Z,4.40
2019-04-11T15:12:02.343Z,8.53
2019-04-11T15:14:54.509Z,6.67
2019-04-11T15:17:28.797Z,7.63
2019-04-11T15:20:08.553Z,7.77
2019-04-11T15:23:00.882Z,7.80
2019-04-11T15:25:56.237Z,6.03
2019-04-11T15:28:36.069Z,7.43
2019-04-11T15:31:18.420Z,7.27
2019-04-11T15:33:56.033Z,5.40
2019-04-11T15:36:28.455Z,8.20
2019-04-11T15:39:17.965Z,5.20
2019-04-11T15:41:49.435Z,6.45
2019-04-11T15:44:47.883Z,6.12
2019-04-11T15:47:20.311Z,5.12
2019-04-11T15:50:09.595Z,5.72
2019-04-11T15:52:45.040Z,4.80
2019-04-11T15:55:33.197Z,5.00
2019-04-11T15:58:03.528Z,7.08
2019-04-11T16:01:05.109Z,5.65
2019-04-11T16:03:36.503Z,6.15
2019-04-11T16:06:24.503Z,9.18
2019-04-11T16:08:59.066Z,6.78
2019-04-11T16:11:47.223Z,5.70
2019-04-11T16:14:28.382Z,9.23
2019-04-11T16:17:35.861Z,9.03
2019-04-11T16:20:11.677Z,7.78
2019-04-11T16:23:13.027Z,7.45
2019-04-11T16:25:49.801Z,7.58
2019-04-11T16:28:55.800Z,7.25
2019-04-11T16:31:32.037Z,8.30
2019-04-11T16:34:15.815Z,4.67
2019-04-11T16:36:52.067Z,9.18
2019-04-11T16:39:53.457Z,6.37
2019-04-11T16:42:38.050Z,8.55
2019-04-11T16:45:38.241Z,5.12
2019-04-11T16:48:08.590Z,6.87
2019-04-11T16:50:38.969Z,6.10
2019-04-11T16:53:11.522Z,7.20
2019-04-11T16:55:43.091Z,5.95
2019-04-11T16:58:17.117Z,6.00
2019-04-11T17:00:45.199Z,4.67
2019-04-11T17:03:17.288Z,6.40
2019-04-11T17:06:11.061Z,5.97
2019-04-11T17:08:57.098Z,5.03
2019-04-11T17:11:28.573Z,5.62
2019-04-11T17:13:58.923Z,6.37
2019-04-11T17:16:30.718Z,8.33
2019-04-11T17:19:05.045Z,7.25
2019-04-11T17:21:42.747Z,7.03
2019-04-11T17:24:05.554Z,7.45
2019-04-11T17:26:35.943Z,6.37
2019-04-11T17:29:06.687Z,7.95
2019-04-11T17:31:37.092Z,8.03
2019-04-11T17:34:07.453Z,5.90
2019-04-11T17:36:39.311Z,7.58
2019-04-11T17:39:09.641Z,7.22
2019-04-11T17:41:42.062Z,9.75
2019-04-11T17:44:13.665Z,6.40
2019-04-11T17:46:44.025Z,6.28
2019-04-11T17:49:14.417Z,6.15
2019-04-11T17:51:55.331Z,6.87
2019-04-11T17:54:16.788Z,5.37
2019-04-11T17:56:47.309Z,8.13
2019-04-11T17:59:17.623Z,7.62
2019-04-11T18:01:48.094Z,7.17
2019-04-11T18:04:19.612Z,6.17
2019-04-11T18:06:50.169Z,6.55
2019-04-11T18:09:25.560Z,7.60
2019-04-11T18:11:55.893Z,7.42
2019-04-11T18:14:24.668Z,7.53
2019-04-11T18:16:55.454Z,7.05
2019-04-11T18:19:25.979Z,9.85
2019-04-11T18:22:07.256Z,6.17
2019-04-11T18:24:28.331Z,8.25
2019-04-11T18:26:58.661Z,8.15
2019-04-11T18:29:29.130Z,7.67
2019-04-11T18:31:59.574Z,7.65
2019-04-11T18:34:31.831Z,7.87
2019-04-11T18:37:02.740Z,8.25
2019-04-11T18:39:33.629Z,9.45
2019-04-11T18:42:05.213Z,7.17
2019-04-11T18:44:35.669Z,9.98
2019-04-11T18:47:06.055Z,7.20
2019-04-11T18:49:36.417Z,9.35
2019-04-11T18:52:06.717Z,9.25
2019-04-11T18:54:37.069Z,8.73
2019-04-11T18:57:07.474Z,8.40
2019-04-11T18:59:37.827Z,9.28
2019-04-11T19:02:10.455Z,9.88
2019-04-11T19:04:42.231Z,8.75
2019-04-11T19:07:13.856Z,6.85
2019-04-11T19:09:44.463Z,7.65
2019-04-11T19:12:16.371Z,8.30
2019-04-11T19:14:48.005Z,9.50
2019-04-11T19:17:18.356Z,10.28
2019-04-11T19:19:49.378Z,11.55
2019-04-11T19:22:36.657Z,11.93
2019-04-11T19:24:53.299Z,11.30
2019-04-11T19:27:23.672Z,10.70
2019-04-11T19:29:55.970Z,9.63
2019-04-11T19:32:27.009Z,11.95
2019-04-11T19:34:57.437Z,10.65
2019-04-11T19:37:28.701Z,9.78
2019-04-11T19:39:59.222Z,10.28
2019-04-11T19:42:29.531Z,12.13
2019-04-11T19:45:02.757Z,9.30
2019-04-11T19:47:32.009Z,11.15
2019-04-11T19:50:02.392Z,9.78
2019-04-11T19:52:45.055Z,13.00
2019-04-11T19:55:16.665Z,15.30
2019-04-11T19:57:47.051Z,10.90
2019-04-11T20:00:21.335Z,14.33
2019-04-11T20:02:49.334Z,12.40
2019-04-11T20:05:19.682Z,10.72
2019-04-11T20:07:50.818Z,11.73
2019-04-11T20:10:21.121Z,12.15
2019-04-11T20:12:51.575Z,12.68
2019-04-11T20:15:21.929Z,12.43
2019-04-11T20:17:52.286Z,14.73
2019-04-11T20:20:22.627Z,15.60
2019-04-11T20:22:58.769Z,16.55
2019-04-11T20:25:24.983Z,11.90
2019-04-11T20:27:57.378Z,13.90
2019-04-11T20:30:27.354Z,16.40
2019-04-11T20:32:57.717Z,11.97
2019-04-11T20:35:29.416Z,11.30
2019-04-11T20:38:00.293Z,10.25
2019-04-11T20:40:30.657Z,10.85
2019-04-11T20:43:00.961Z,12.95
2019-04-11T20:45:33.685Z,12.03
2019-04-11T20:48:04.220Z,11.88
2019-04-11T20:50:34.683Z,13.55
2019-04-11T20:53:12.699Z,10.25
2019-04-11T20:55:39.346Z,10.82
2019-04-11T20:58:10.957Z,8.73
2019-04-11T21:00:50.124Z,11.48
2019-04-11T21:03:13.369Z,10.88
2019-04-11T21:05:44.749Z,9.55
2019-04-11T21:08:15.983Z,11.63
2019-04-11T21:10:46.337Z,10.13
2019-04-11T21:13:16.715Z,9.00
2019-04-11T21:15:47.128Z,9.35
2019-04-11T21:18:17.472Z,9.58
2019-04-11T21:20:47.807Z,10.13
2019-04-11T21:23:24.363Z,8.18
2019-04-11T21:25:50.201Z,10.10
2019-04-11T21:28:20.647Z,9.55
2019-04-11T21:30:51.047Z,8.38
2019-04-11T21:33:21.443Z,9.13
2019-04-11T21:35:51.782Z,10.53
2019-04-11T21:38:22.147Z,8.43
2019-04-11T21:40:53.754Z,7.47
2019-04-11T21:43:24.187Z,8.85
2019-04-11T21:45:54.551Z,9.58
2019-04-11T21:48:25.370Z,9.98
2019-04-11T21:50:55.713Z,8.15
2019-04-11T21:53:36.017Z,13.48
2019-04-11T21:55:58.157Z,10.58
2019-04-11T21:58:29.405Z,12.58
2019-04-11T22:01:05.073Z,8.85
2019-04-11T22:03:35.551Z,11.45
2019-04-11T22:06:05.879Z,8.88
2019-04-11T22:08:39.315Z,8.95
2019-04-11T22:11:10.093Z,10.18
2019-04-11T22:13:41.720Z,9.38
2019-04-11T22:16:14.225Z,12.33
2019-04-11T22:18:44.506Z,9.45
2019-04-11T22:21:15.993Z,11.85
2019-04-11T22:23:48.899Z,9.50
2019-04-11T22:26:18.509Z,12.35
2019-04-11T22:28:48.960Z,13.72
2019-04-11T22:31:19.335Z,9.45
2019-04-11T22:33:57.889Z,9.88
2019-04-11T22:36:30.616Z,9.60
2019-04-11T22:39:01.071Z,10.23
2019-04-11T22:41:35.074Z,10.85
2019-04-11T22:44:07.703Z,9.08
2019-04-11T22:46:38.262Z,10.65
2019-04-11T22:49:10.165Z,8.63
2019-04-11T22:51:43.503Z,8.93
2019-04-11T22:54:13.707Z,10.72
2019-04-11T22:56:44.116Z,8.73
2019-04-11T22:59:14.601Z,10.95
2019-04-11T23:01:47.071Z,10.15
2019-04-11T23:04:17.979Z,10.80
2019-04-11T23:06:48.320Z,8.38
2019-04-11T23:09:19.542Z,12.47
2019-04-11T23:11:50.117Z,9.55
2019-04-11T23:14:20.492Z,12.03
2019-04-11T23:16:50.817Z,9.38
2019-04-11T23:19:21.262Z,12.82
2019-04-11T23:21:51.645Z,11.18
2019-04-11T23:24:22.039Z,13.95
2019-04-11T23:26:52.339Z,13.28
2019-04-11T23:29:22.755Z,12.95
2019-04-11T23:31:53.055Z,10.38
2019-04-11T23:34:23.357Z,11.45
2019-04-11T23:36:53.661Z,11.08
2019-04-11T23:39:24.005Z,10.85
2019-04-11T23:41:55.889Z,10.55
2019-04-11T23:44:26.237Z,8.28
2019-04-11T23:46:56.707Z,11.12
2019-04-11T23:49:27.097Z,10.23
2019-04-11T23:51:57.425Z,13.65
2019-04-11T23:54:29.231Z,11.03
2019-04-11T23:57:00.947Z,10.48
2019-04-11T23:59:32.573Z,12.10
